Time;durP1;ratioP1;P1;durP2;ratioP2;P2;SDS_P1;SDS_P2;PMS_P1;PMS_P2;Temp;Humidity;BMP_temperature;BMP_pressure;BME280_temperature;BME280_humidity;BME280_pressure;Samples;Min_cycle;Max_cycle;Signal;HPM_P1;HPM_P2
2021/04/25 00:02:08;;;;;;;8.05;3.65;;;;;;;4.52;54.54;100666.83;1724514;83;21046;-69
2021/04/25 00:04:36;;;;;;;8.80;3.65;;;;;;;4.52;54.58;100670.91;1724399;82;21062;-68
2021/04/25 00:07:05;;;;;;;10.03;3.50;;;;;;;4.52;54.53;100667.69;1724341;81;21066;-68
2021/04/25 00:09:33;;;;;;;8.80;3.83;;;;;;;4.51;54.53;100664.63;1724426;83;21278;-69
2021/04/25 00:12:02;;;;;;;7.47;3.60;;;;;;;4.53;54.62;100666.68;1724437;83;21057;-69
2021/04/25 00:14:29;;;;;;;11.38;4.58;;;;;;;4.52;54.63;100662.26;1724524;83;21086;-69
2021/04/25 00:16:57;;;;;;;8.80;3.60;;;;;;;4.52;54.67;100661.41;1724403;83;21292;-68
2021/04/25 00:19:25;;;;;;;10.45;4.58;;;;;;;4.54;54.62;100657.53;1724446;83;21041;-68
2021/04/25 00:21:52;;;;;;;9.30;4.05;;;;;;;4.56;54.59;100661.48;1724354;83;21344;-70
2021/04/25 00:24:19;;;;;;;8.95;4.22;;;;;;;4.54;54.58;100653.46;1724409;83;21069;-68
2021/04/25 00:26:47;;;;;;;9.45;4.33;;;;;;;4.52;54.57;100654.12;1724449;81;21029;-68
2021/04/25 00:29:15;;;;;;;14.13;6.40;;;;;;;4.52;54.64;100657.34;1724473;81;21304;-68
2021/04/25 00:31:42;;;;;;;13.22;5.62;;;;;;;4.48;54.80;100649.16;1736105;81;21062;-67
2021/04/25 00:34:10;;;;;;;12.63;5.37;;;;;;;4.44;54.91;100653.53;1755169;81;21193;-67
2021/04/25 00:36:37;;;;;;;12.60;6.00;;;;;;;4.41;54.99;100651.63;1766405;81;21380;-67
2021/04/25 00:39:05;;;;;;;13.68;6.10;;;;;;;4.36;55.09;100651.22;1755062;81;21292;-68
2021/04/25 00:41:32;;;;;;;14.87;6.78;;;;;;;4.32;55.21;100653.38;1766649;81;21070;-70
2021/04/25 00:44:00;;;;;;;10.10;5.30;;;;;;;4.32;55.23;100659.31;1755113;81;21275;-69
2021/04/25 00:46:27;;;;;;;10.13;4.83;;;;;;;4.30;55.25;100653.19;1740417;81;21077;-70
2021/04/25 00:48:55;;;;;;;10.15;4.67;;;;;;;4.28;55.23;100649.27;1754053;81;21201;-67
2021/04/25 00:51:23;;;;;;;11.22;4.90;;;;;;;4.27;55.20;100642.64;1750134;82;21066;-69
2021/04/25 00:53:51;;;;;;;8.03;3.65;;;;;;;4.25;55.16;100650.07;1746449;82;21087;-67
2021/04/25 00:56:20;;;;;;;7.65;3.72;;;;;;;4.22;55.16;100641.73;1749834;82;21059;-68
2021/04/25 00:58:48;;;;;;;9.60;3.67;;;;;;;4.22;55.08;100640.37;1746384;82;21079;-69
2021/04/25 01:01:16;;;;;;;9.48;3.75;;;;;;;4.22;55.04;100635.45;1749886;82;21274;-68
2021/04/25 01:03:45;;;;;;;9.25;4.03;;;;;;;4.19;54.95;100630.33;1717686;82;21083;-67
2021/04/25 01:06:14;;;;;;;7.30;3.40;;;;;;;4.19;54.92;100635.25;1749953;82;21208;-67
2021/04/25 01:08:41;;;;;;;11.63;4.17;;;;;;;4.18;54.90;100632.19;1746396;81;21027;-69
2021/04/25 01:11:09;;;;;;;10.08;3.50;;;;;;;4.16;54.86;100634.20;1749922;82;21165;-69
2021/04/25 01:13:36;;;;;;;7.85;3.17;;;;;;;4.12;54.86;100628.23;1742835;82;21066;-68
2021/04/25 01:16:04;;;;;;;7.80;3.62;;;;;;;4.09;54.92;100623.11;1745793;81;21096;-68
2021/04/25 01:18:32;;;;;;;7.05;3.35;;;;;;;4.10;55.02;100625.31;1749780;82;21331;-68
2021/04/25 01:21:01;;;;;;;7.35;3.40;;;;;;;4.10;54.97;100624.81;1746457;82;21301;-68
2021/04/25 01:23:28;;;;;;;7.55;3.17;;;;;;;4.09;54.88;100621.75;1750028;82;21090;-69
2021/04/25 01:25:56;;;;;;;7.03;3.15;;;;;;;4.05;54.96;100621.70;1746284;82;21297;-67
2021/04/25 01:28:23;;;;;;;6.90;3.17;;;;;;;4.00;55.00;100606.39;1749751;82;21063;-69
2021/04/25 01:30:53;;;;;;;6.75;3.35;;;;;;;3.95;55.13;100612.77;1746571;82;21250;-69
2021/04/25 01:33:24;;;;;;;9.40;3.80;;;;;;;3.94;55.26;100610.20;1749847;82;21051;-68
2021/04/25 01:35:52;;;;;;;10.48;3.50;;;;;;;3.91;55.39;100607.28;1746532;82;21117;-68
2021/04/25 01:38:20;;;;;;;9.18;3.62;;;;;;;3.91;55.50;100601.02;1749894;82;21294;-67
2021/04/25 01:40:47;;;;;;;6.85;3.35;;;;;;;3.88;55.54;100596.71;1746373;81;21742;-67
2021/04/25 01:43:14;;;;;;;11.22;4.00;;;;;;;3.89;55.63;100597.06;1749870;82;21185;-68
2021/04/25 01:45:41;;;;;;;9.15;3.65;;;;;;;3.89;55.72;100594.85;1746361;81;21066;-69
2021/04/25 01:48:09;;;;;;;8.00;3.67;;;;;;;3.91;55.73;100592.88;1749785;82;21062;-68
2021/04/25 01:50:38;;;;;;;7.78;3.40;;;;;;;3.92;55.79;100595.94;1746302;82;21083;-67
2021/04/25 01:53:06;;;;;;;7.42;3.00;;;;;;;3.91;55.75;100589.67;1749865;82;21054;-68
2021/04/25 01:55:35;;;;;;;8.75;3.98;;;;;;;3.90;55.82;100590.67;1746456;81;21071;-68
2021/04/25 01:58:05;;;;;;;7.35;3.65;;;;;;;3.91;55.94;100589.67;1710851;82;21185;-68
2021/04/25 02:00:36;;;;;;;8.38;2.92;;;;;;;3.93;55.88;100584.95;1711266;82;21349;-69
2021/04/25 02:03:04;;;;;;;8.30;3.60;;;;;;;3.95;55.83;100589.72;1744668;82;21032;-68
2021/04/25 02:05:32;;;;;;;8.45;3.58;;;;;;;3.96;55.79;100580.58;1723560;82;21184;-67
2021/04/25 02:07:59;;;;;;;6.97;3.17;;;;;;;3.98;55.78;100581.78;1744542;81;21182;-68
2021/04/25 02:10:27;;;;;;;10.80;3.67;;;;;;;3.97;55.84;100583.64;1744552;82;21029;-67
2021/04/25 02:12:55;;;;;;;6.92;3.47;;;;;;;3.98;55.82;100596.20;1744535;82;21175;-69
2021/04/25 02:15:23;;;;;;;7.75;3.67;;;;;;;3.99;55.82;100584.34;1744599;81;21065;-68
2021/04/25 02:17:51;;;;;;;6.92;3.60;;;;;;;4.01;55.81;100577.42;1744709;81;21097;-68
2021/04/25 02:20:21;;;;;;;7.55;4.00;;;;;;;4.01;55.78;100577.42;1744685;82;21034;-68
2021/04/25 02:22:49;;;;;;;8.18;3.83;;;;;;;4.02;55.80;100580.48;1744590;81;21360;-68
2021/04/25 02:25:17;;;;;;;9.48;3.83;;;;;;;4.03;55.80;100573.55;1744553;81;21273;-68
2021/04/25 02:27:45;;;;;;;8.88;3.95;;;;;;;4.05;55.81;100572.90;1744511;81;21049;-68
2021/04/25 02:30:17;;;;;;;8.08;3.80;;;;;;;4.05;55.76;100572.90;1744667;82;21256;-69
2021/04/25 02:32:45;;;;;;;8.45;4.25;;;;;;;4.07;55.74;100579.52;1744622;82;21329;-68
2021/04/25 02:35:13;;;;;;;10.05;3.62;;;;;;;4.09;55.75;100595.14;1744574;82;21168;-68
2021/04/25 02:37:40;;;;;;;11.45;3.83;;;;;;;4.10;55.73;100585.50;1744511;80;21291;-68
2021/04/25 02:40:10;;;;;;;5.92;3.37;;;;;;;4.11;55.69;100584.49;1748187;79;21728;-68
2021/04/25 02:42:38;;;;;;;6.90;3.55;;;;;;;4.12;55.61;100576.70;1744485;82;21224;-68
2021/04/25 02:45:06;;;;;;;8.70;3.40;;;;;;;4.16;55.51;100583.18;1744500;81;21822;-69
2021/04/25 02:47:34;;;;;;;5.65;3.25;;;;;;;4.16;55.48;100570.47;1744794;81;21097;-69
2021/04/25 02:50:01;;;;;;;8.35;3.87;;;;;;;4.19;55.41;100572.03;1748411;81;21063;-67
2021/04/25 02:52:29;;;;;;;7.30;3.58;;;;;;;4.23;55.27;100574.79;1757844;81;21077;-69
2021/04/25 02:54:56;;;;;;;11.10;3.70;;;;;;;4.24;55.20;100577.34;1757834;81;21046;-68
2021/04/25 02:57:23;;;;;;;8.50;3.80;;;;;;;4.25;55.10;100572.77;1757840;80;21314;-68
2021/04/25 02:59:51;;;;;;;7.83;3.55;;;;;;;4.26;55.10;100573.98;1757837;81;21305;-68
2021/04/25 03:02:18;;;;;;;8.23;3.60;;;;;;;4.26;55.03;100577.19;1757890;81;21066;-69
2021/04/25 03:04:45;;;;;;;7.60;3.52;;;;;;;4.24;55.07;100569.71;1757963;81;21277;-69
2021/04/25 03:07:13;;;;;;;7.03;3.58;;;;;;;4.24;55.10;100570.56;1757827;81;21305;-68
2021/04/25 03:09:40;;;;;;;9.80;4.08;;;;;;;4.28;55.08;100567.90;1757810;81;21325;-68
2021/04/25 03:12:08;;;;;;;8.70;3.80;;;;;;;4.29;55.04;100569.61;1757779;81;21337;-68
2021/04/25 03:14:35;;;;;;;10.18;4.30;;;;;;;4.32;54.92;100571.16;1757830;81;21354;-68
2021/04/25 03:17:02;;;;;;;7.80;3.67;;;;;;;4.34;54.92;100567.78;1757920;81;21070;-68
2021/04/25 03:19:30;;;;;;;8.70;4.00;;;;;;;4.35;54.80;100569.49;1757811;81;21070;-69
2021/04/25 03:21:57;;;;;;;8.08;3.70;;;;;;;4.37;54.78;100564.77;1765293;78;21015;-69
2021/04/25 03:24:25;;;;;;;7.92;3.45;;;;;;;4.37;54.75;100562.05;1754880;81;21066;-68
2021/04/25 03:26:52;;;;;;;7.05;3.50;;;;;;;4.39;54.69;100565.47;1754792;81;21174;-68
2021/04/25 03:29:19;;;;;;;7.65;3.65;;;;;;;4.40;54.63;100561.75;1754744;81;21393;-68
2021/04/25 03:31:47;;;;;;;6.45;3.40;;;;;;;4.43;54.63;100566.36;1766265;81;21781;-68
2021/04/25 03:34:14;;;;;;;8.40;3.52;;;;;;;4.46;54.61;100567.91;1755060;81;21301;-69
2021/04/25 03:36:42;;;;;;;8.15;3.72;;;;;;;4.51;54.55;100564.23;1766489;81;21101;-67
2021/04/25 03:39:09;;;;;;;11.75;3.92;;;;;;;4.56;54.37;100557.87;1755016;81;21324;-68
2021/04/25 03:41:37;;;;;;;9.15;3.65;;;;;;;4.61;54.30;100564.19;1766466;81;21784;-68
2021/04/25 03:44:05;;;;;;;7.03;3.52;;;;;;;4.64;54.27;100565.23;1755007;81;21059;-68
2021/04/25 03:46:33;;;;;;;6.83;3.60;;;;;;;4.67;54.15;100564.41;1766488;81;21058;-67
2021/04/25 03:49:01;;;;;;;8.78;3.20;;;;;;;4.68;54.08;100563.41;1754615;81;21034;-68
2021/04/25 03:51:28;;;;;;;6.58;3.55;;;;;;;4.70;54.11;100561.39;1764546;81;21090;-68
2021/04/25 03:53:57;;;;;;;8.20;3.55;;;;;;;4.74;54.04;100567.36;1693569;82;21072;-68
2021/04/25 03:56:24;;;;;;;8.98;3.12;;;;;;;4.74;53.96;100561.42;1749995;82;21327;-68
2021/04/25 03:58:51;;;;;;;7.58;3.27;;;;;;;4.76;53.97;100558.55;1746359;82;21828;-68
2021/04/25 04:01:19;;;;;;;6.47;3.40;;;;;;;4.78;54.01;100557.89;1749873;82;21751;-69
2021/04/25 04:03:46;;;;;;;7.17;3.42;;;;;;;4.81;53.99;100558.94;1746727;82;21197;-69
2021/04/25 04:06:14;;;;;;;7.67;3.45;;;;;;;4.82;54.04;100553.00;1707552;82;21135;-68
2021/04/25 04:08:42;;;;;;;7.42;3.15;;;;;;;4.85;54.07;100556.76;1711390;83;21062;-68
2021/04/25 04:11:09;;;;;;;5.90;2.92;;;;;;;4.88;54.00;100555.09;1711355;82;21326;-69
2021/04/25 04:13:37;;;;;;;6.10;3.12;;;;;;;4.93;53.89;100551.40;1744722;80;21045;-67
2021/04/25 04:16:05;;;;;;;5.12;2.80;;;;;;;4.97;53.83;100557.71;1744645;82;21060;-68
2021/04/25 04:18:32;;;;;;;6.67;3.00;;;;;;;5.02;53.69;100551.30;1744452;82;21057;-67
2021/04/25 04:20:59;;;;;;;6.30;3.12;;;;;;;5.06;53.56;100543.69;1744584;81;21065;-69
2021/04/25 04:23:27;;;;;;;5.80;2.65;;;;;;;5.08;53.41;100550.67;1744642;81;21021;-69
2021/04/25 04:25:54;;;;;;;5.58;2.80;;;;;;;5.12;53.42;100552.56;1744608;82;21312;-69
2021/04/25 04:28:22;;;;;;;7.30;3.33;;;;;;;5.14;53.27;100553.25;1744558;82;21025;-69
2021/04/25 04:30:50;;;;;;;6.67;2.85;;;;;;;5.17;53.20;100551.58;1744528;82;21323;-69
2021/04/25 04:33:17;;;;;;;7.37;3.45;;;;;;;5.20;53.13;100553.13;1744731;82;21313;-67
2021/04/25 04:35:44;;;;;;;6.58;3.10;;;;;;;5.24;53.03;100547.24;1744594;82;21235;-70
2021/04/25 04:38:12;;;;;;;6.50;2.90;;;;;;;5.24;52.96;100543.16;1745878;82;21359;-70
2021/04/25 04:40:39;;;;;;;6.42;3.30;;;;;;;5.25;53.00;100543.52;1744503;80;21320;-67
2021/04/25 04:43:07;;;;;;;7.25;3.35;;;;;;;5.28;53.07;100543.20;1744468;81;21072;-69
2021/04/25 04:45:34;;;;;;;6.10;3.00;;;;;;;5.33;52.96;100540.00;1744508;80;21309;-69
2021/04/25 04:48:02;;;;;;;6.55;3.60;;;;;;;5.37;52.95;100545.45;1772741;79;21054;-70
2021/04/25 04:50:30;;;;;;;6.28;3.47;;;;;;;5.40;52.93;100550.56;1746270;82;21093;-68
2021/04/25 04:52:57;;;;;;;7.28;3.33;;;;;;;5.45;52.78;100551.44;1749884;82;21285;-68
2021/04/25 04:55:25;;;;;;;7.15;2.98;;;;;;;5.44;52.90;100557.89;1746210;82;21050;-68
2021/04/25 04:57:53;;;;;;;8.83;3.22;;;;;;;5.48;52.94;100548.41;1749719;82;21291;-68
2021/04/25 05:00:20;;;;;;;5.50;3.45;;;;;;;5.52;52.85;100556.58;1746279;81;21329;-68
2021/04/25 05:02:48;;;;;;;7.65;3.60;;;;;;;5.56;52.94;100552.52;1749661;82;21958;-67
2021/04/25 05:05:15;;;;;;;7.20;3.30;;;;;;;5.59;52.79;100554.92;1746467;82;21078;-68
2021/04/25 05:07:43;;;;;;;6.47;3.33;;;;;;;5.55;52.82;100553.53;1750170;82;21440;-68
2021/04/25 05:10:11;;;;;;;8.15;3.55;;;;;;;5.53;53.01;100555.56;1746408;82;21077;-68
2021/04/25 05:12:38;;;;;;;9.38;3.37;;;;;;;5.54;53.10;100550.47;1749823;82;21077;-68
2021/04/25 05:15:07;;;;;;;9.08;3.85;;;;;;;5.56;53.24;100546.58;1746366;81;21071;-69
2021/04/25 05:17:34;;;;;;;6.58;3.58;;;;;;;5.60;53.17;100547.96;1749825;82;21349;-68
2021/04/25 05:20:02;;;;;;;5.72;3.00;;;;;;;5.62;53.28;100545.08;1746352;81;21082;-69
2021/04/25 05:22:29;;;;;;;6.70;3.55;;;;;;;5.68;53.31;100542.56;1749806;82;21237;-68
2021/04/25 05:24:57;;;;;;;7.70;3.72;;;;;;;5.75;53.20;100546.84;1746578;82;21181;-69
2021/04/25 05:27:25;;;;;;;6.20;3.10;;;;;;;5.81;53.02;100558.93;1749921;82;21181;-68
2021/04/25 05:29:52;;;;;;;7.83;3.35;;;;;;;5.84;52.99;100555.37;1747044;82;21055;-68
2021/04/25 05:32:20;;;;;;;7.85;3.58;;;;;;;5.86;52.99;100552.02;1745879;82;21329;-70
2021/04/25 05:34:47;;;;;;;6.17;3.25;;;;;;;5.92;52.99;100546.47;1749650;82;21065;-68
2021/04/25 05:37:15;;;;;;;6.78;3.17;;;;;;;5.99;52.90;100548.36;1746231;82;21257;-69
2021/04/25 05:39:42;;;;;;;7.70;3.20;;;;;;;6.07;52.93;100563.00;1749694;82;21358;-68
2021/04/25 05:42:10;;;;;;;7.97;3.72;;;;;;;6.11;52.78;100553.50;1746236;82;21781;-70
2021/04/25 05:44:38;;;;;;;8.58;3.37;;;;;;;6.16;52.72;100556.58;1749727;82;21178;-68
2021/04/25 05:47:06;;;;;;;5.72;3.50;;;;;;;6.19;52.66;100556.24;1746354;82;21019;-69
2021/04/25 05:49:34;;;;;;;7.17;3.47;;;;;;;6.21;52.63;100555.06;1750017;82;21075;-70
2021/04/25 05:52:01;;;;;;;7.55;3.90;;;;;;;6.25;52.69;100551.50;1746302;81;21114;-70
2021/04/25 05:54:29;;;;;;;9.28;3.37;;;;;;;6.31;52.71;100556.28;1751001;82;21342;-71
2021/04/25 05:56:56;;;;;;;8.03;3.62;;;;;;;6.37;52.60;100554.25;1746321;82;21050;-68
2021/04/25 05:59:23;;;;;;;9.18;3.58;;;;;;;6.46;52.60;100553.75;1750194;82;21310;-68
2021/04/25 06:01:51;;;;;;;6.12;3.30;;;;;;;6.56;52.45;100551.77;1746176;82;21071;-68
2021/04/25 06:04:19;;;;;;;10.15;3.92;;;;;;;6.65;52.36;100546.16;1749703;82;21260;-68
2021/04/25 06:06:46;;;;;;;6.85;3.72;;;;;;;6.74;52.23;100550.25;1746186;82;21299;-68
2021/04/25 06:09:14;;;;;;;6.58;3.70;;;;;;;6.82;52.07;100552.97;1749771;82;21070;-71
2021/04/25 06:11:41;;;;;;;7.58;3.80;;;;;;;6.86;51.96;100553.83;1746270;81;21318;-68
2021/04/25 06:14:09;;;;;;;7.42;3.75;;;;;;;6.92;51.84;100545.48;1747721;82;21321;-68
2021/04/25 06:16:37;;;;;;;8.95;3.67;;;;;;;6.98;51.86;100551.61;1746333;82;21046;-68
2021/04/25 06:19:04;;;;;;;8.63;3.50;;;;;;;7.09;51.78;100551.27;1749630;82;21329;-68
2021/04/25 06:21:32;;;;;;;5.75;3.17;;;;;;;7.20;51.38;100548.73;1746182;82;21058;-68
2021/04/25 06:23:59;;;;;;;7.90;3.42;;;;;;;7.25;51.33;100542.25;1749866;82;21297;-69
2021/04/25 06:26:27;;;;;;;9.65;3.77;;;;;;;7.34;51.22;100540.36;1746162;82;21062;-69
2021/04/25 06:28:55;;;;;;;6.83;3.20;;;;;;;7.43;51.01;100544.77;1749712;82;21786;-68
2021/04/25 06:31:22;;;;;;;6.35;3.27;;;;;;;7.53;50.93;100549.52;1746226;82;21311;-68
2021/04/25 06:33:50;;;;;;;10.40;3.50;;;;;;;7.61;50.89;100545.40;1749531;82;21097;-69
2021/04/25 06:36:18;;;;;;;6.00;3.15;;;;;;;7.70;50.62;100544.34;1746217;82;21149;-69
2021/04/25 06:38:47;;;;;;;6.78;3.45;;;;;;;7.79;50.50;100550.11;1749469;82;21246;-70
2021/04/25 06:41:14;;;;;;;5.67;2.83;;;;;;;7.85;50.37;100537.67;1746418;82;21054;-70
2021/04/25 06:43:41;;;;;;;5.37;3.25;;;;;;;7.92;50.09;100557.25;1749746;82;21282;-69
2021/04/25 06:46:09;;;;;;;7.47;3.47;;;;;;;7.98;49.88;100539.83;1746378;82;21019;-69
2021/04/25 06:48:37;;;;;;;7.72;3.05;;;;;;;8.06;49.99;100535.70;1749980;82;21083;-70
2021/04/25 06:51:04;;;;;;;6.62;3.42;;;;;;;8.17;49.90;100534.79;1747226;82;21046;-69
2021/04/25 06:53:32;;;;;;;7.95;3.40;;;;;;;8.27;49.56;100534.05;1732696;81;21254;-67
2021/04/25 06:55:59;;;;;;;6.00;3.40;;;;;;;8.36;49.39;100529.42;1734537;82;21300;-68
2021/04/25 06:58:26;;;;;;;5.80;3.20;;;;;;;8.40;49.41;100530.76;1734032;81;21050;-68
2021/04/25 07:00:54;;;;;;;7.17;3.80;;;;;;;8.51;49.12;100534.98;1704527;82;21099;-69
2021/04/25 07:03:21;;;;;;;6.20;3.40;;;;;;;8.58;49.02;100535.44;1715795;83;21310;-68
2021/04/25 07:05:49;;;;;;;12.23;3.60;;;;;;;8.67;48.84;100537.59;1715867;83;21256;-70
2021/04/25 07:08:16;;;;;;;7.12;4.05;;;;;;;8.75;48.94;100543.52;1715904;83;21332;-70
2021/04/25 07:10:44;;;;;;;6.87;3.70;;;;;;;8.83;48.91;100547.55;1716766;82;21098;-69
2021/04/25 07:13:11;;;;;;;9.60;4.45;;;;;;;8.90;48.61;100554.83;1715900;83;21047;-70
2021/04/25 07:15:39;;;;;;;8.10;3.85;;;;;;;8.93;48.42;100546.78;1715657;83;21204;-69
2021/04/25 07:18:06;;;;;;;8.73;3.60;;;;;;;8.99;48.37;100546.05;1715808;82;21105;-68
2021/04/25 07:20:35;;;;;;;9.13;3.50;;;;;;;9.05;48.17;100545.31;1715142;82;21051;-69
2021/04/25 07:23:04;;;;;;;6.87;3.15;;;;;;;9.15;47.84;100551.41;1715814;83;21079;-68
2021/04/25 07:25:32;;;;;;;5.78;2.83;;;;;;;9.28;47.52;100545.30;1715960;82;21070;-71
2021/04/25 07:27:59;;;;;;;7.55;3.12;;;;;;;9.46;46.75;100534.86;1715983;82;21160;-68
2021/04/25 07:30:27;;;;;;;6.15;3.22;;;;;;;9.62;46.12;100545.29;1716227;83;21329;-70
2021/04/25 07:32:54;;;;;;;6.00;3.08;;;;;;;9.77;45.47;100555.75;1715764;83;21341;-68
2021/04/25 07:35:21;;;;;;;5.40;2.90;;;;;;;9.86;45.25;100542.30;1715864;83;21240;-68
2021/04/25 07:37:49;;;;;;;6.53;3.35;;;;;;;9.95;44.95;100529.36;1732739;81;21058;-68
2021/04/25 07:40:17;;;;;;;7.72;4.40;;;;;;;10.02;44.99;100532.52;1712190;81;21093;-69
2021/04/25 07:42:44;;;;;;;9.45;5.50;;;;;;;10.10;44.86;100541.14;1711076;82;21050;-68
2021/04/25 07:45:12;;;;;;;15.75;3.98;;;;;;;10.16;44.81;100538.48;1711006;84;21034;-69
2021/04/25 07:47:41;;;;;;;38.28;4.80;;;;;;;10.24;44.38;100544.41;1711006;82;21075;-68
2021/04/25 07:50:09;;;;;;;13.95;3.50;;;;;;;10.31;44.25;100540.38;1711096;84;21052;-69
2021/04/25 07:52:37;;;;;;;9.28;3.60;;;;;;;10.36;43.54;100544.75;1711176;83;21091;-69
2021/04/25 07:55:06;;;;;;;7.37;3.08;;;;;;;10.35;42.66;100546.64;1690027;85;21377;-69
2021/04/25 07:57:33;;;;;;;8.70;3.25;;;;;;;10.33;42.83;100540.51;1703133;84;21083;-69
2021/04/25 08:00:01;;;;;;;5.42;2.90;;;;;;;10.33;42.27;100537.77;1690899;82;21034;-70
2021/04/25 08:02:30;;;;;;;5.58;2.55;;;;;;;10.28;42.33;100538.87;1688938;84;21747;-69
2021/04/25 08:04:58;;;;;;;4.97;2.70;;;;;;;10.17;42.83;100551.14;1701096;82;21440;-71
2021/04/25 08:07:26;;;;;;;5.87;2.77;;;;;;;10.14;42.17;100565.73;1711821;82;21082;-68
2021/04/25 08:10:02;;;;;;;6.15;3.20;;;;;;;10.05;42.47;100537.61;1747480;80;21077;-68
2021/04/25 08:12:30;;;;;;;6.60;3.17;;;;;;;10.08;42.61;100533.64;1732110;82;21032;-68
2021/04/25 08:14:57;;;;;;;6.62;2.80;;;;;;;10.15;42.52;100529.09;1744487;82;21062;-69
2021/04/25 08:17:25;;;;;;;5.85;3.05;;;;;;;10.20;42.39;100517.08;1705319;82;21026;-71
2021/04/25 08:19:54;;;;;;;6.62;3.00;;;;;;;10.25;42.30;100513.23;1733803;81;21273;-75
2021/04/25 08:22:22;;;;;;;6.60;3.00;;;;;;;10.28;42.04;100522.44;1714341;81;21879;-75
2021/04/25 08:24:49;;;;;;;5.22;2.98;;;;;;;10.28;42.14;100517.48;1711932;82;21046;-68
2021/04/25 08:27:16;;;;;;;6.72;2.98;;;;;;;10.31;42.39;100539.85;1710810;82;22026;-73
2021/04/25 08:29:53;;;;;;;5.53;3.02;;;;;;;10.27;43.04;100530.33;1712660;82;21089;-74
2021/04/25 08:32:20;;;;;;;5.55;2.85;;;;;;;10.17;45.12;100516.06;1711339;82;21074;-68
2021/04/25 08:34:47;;;;;;;5.55;2.90;;;;;;;10.18;45.28;100519.97;1710946;82;21081;-68
2021/04/25 08:37:14;;;;;;;8.53;3.33;;;;;;;10.23;45.17;100511.73;1710907;82;21097;-66
2021/04/25 08:39:43;;;;;;;5.53;3.20;;;;;;;10.29;44.98;100510.44;1711371;81;21083;-67
2021/04/25 08:42:13;;;;;;;5.40;2.90;;;;;;;10.46;44.55;100507.81;1711008;82;21297;-73
2021/04/25 08:44:42;;;;;;;5.65;2.95;;;;;;;10.65;43.71;100509.59;1711147;82;21157;-72
2021/04/25 08:47:11;;;;;;;6.87;3.37;;;;;;;10.84;42.79;100506.19;1711228;83;21030;-70
2021/04/25 08:49:41;;;;;;;4.78;2.72;;;;;;;10.97;42.47;100504.94;1711216;82;21093;-72
2021/04/25 08:52:10;;;;;;;4.28;2.72;;;;;;;11.14;41.69;100509.64;1714455;82;21745;-70
2021/04/25 08:54:37;;;;;;;5.30;3.60;;;;;;;11.25;41.07;100499.49;1724436;81;21292;-68
2021/04/25 08:57:05;;;;;;;5.00;3.33;;;;;;;11.33;41.21;100477.92;1724380;81;21188;-67
2021/04/25 08:59:33;;;;;;;6.10;2.87;;;;;;;11.51;40.84;100485.11;1724424;81;21754;-63
2021/04/25 09:02:00;;;;;;;7.33;3.60;;;;;;;11.57;40.74;100493.91;1724435;82;21226;-64
2021/04/25 09:04:28;;;;;;;7.10;3.20;;;;;;;11.57;40.99;100484.30;1743789;81;21045;-65
2021/04/25 09:06:59;;;;;;;5.45;3.08;;;;;;;11.53;40.18;100488.50;1735262;81;21329;-66
2021/04/25 09:09:49;;;;;;;6.45;3.25;;;;;;;11.45;40.12;100490.03;1733554;82;21045;-67
2021/04/25 09:12:39;;;;;;;5.70;2.70;;;;;;;11.42;40.35;100472.59;1727598;82;21077;-66
2021/04/25 09:15:19;;;;;;;5.22;2.65;;;;;;;11.49;39.94;100489.10;1704627;84;21035;-66
2021/04/25 09:17:53;;;;;;;7.50;3.08;;;;;;;11.57;39.42;100481.55;1704380;84;21944;-64
2021/04/25 09:20:41;;;;;;;6.55;3.30;;;;;;;11.59;39.41;100466.25;1704631;84;21802;-65
2021/04/25 09:23:10;;;;;;;6.45;3.00;;;;;;;11.60;39.36;100484.41;1704654;84;21093;-67
2021/04/25 09:25:38;;;;;;;6.33;3.42;;;;;;;11.60;39.74;100468.80;1733512;81;21184;-68
2021/04/25 09:28:10;;;;;;;5.30;2.67;;;;;;;11.67;39.30;100465.56;1749548;82;21070;-66
2021/04/25 09:30:38;;;;;;;5.15;2.85;;;;;;;11.65;39.69;100462.17;1767507;81;21328;-67
2021/04/25 09:33:10;;;;;;;9.08;3.50;;;;;;;11.60;40.09;100477.55;1750458;81;21751;-62
2021/04/25 09:35:39;;;;;;;9.48;3.92;;;;;;;11.50;40.44;100475.18;1786610;80;21418;-65
2021/04/25 09:38:14;;;;;;;8.03;3.35;;;;;;;11.42;41.05;100475.34;1786741;80;21096;-66
2021/04/25 09:40:44;;;;;;;8.28;3.37;;;;;;;11.27;41.39;100480.09;1780748;79;21317;-66
2021/04/25 09:43:13;;;;;;;6.45;3.42;;;;;;;11.15;41.66;100473.47;1776745;79;21241;-63
2021/04/25 09:45:44;;;;;;;5.17;3.47;;;;;;;11.10;42.09;100480.92;1761315;79;21092;-66
2021/04/25 09:48:31;;;;;;;6.87;3.80;;;;;;;11.09;42.36;100479.22;1786838;79;21065;-66
2021/04/25 09:51:16;;;;;;;6.53;3.70;;;;;;;11.08;42.57;100475.64;1786618;80;21435;-67
2021/04/25 09:53:58;;;;;;;6.92;3.17;;;;;;;11.19;42.58;100475.61;1782511;79;21090;-69
2021/04/25 09:56:38;;;;;;;6.20;3.30;;;;;;;11.33;42.46;100469.69;1781544;80;21065;-66
2021/04/25 09:59:07;;;;;;;7.15;3.25;;;;;;;11.48;42.17;100459.44;1781655;80;21349;-67
2021/04/25 10:01:41;;;;;;;10.10;3.30;;;;;;;11.62;41.67;100452.97;1775014;78;21018;-64
2021/04/25 10:04:35;;;;;;;5.87;3.10;;;;;;;11.67;41.36;100450.47;1765696;80;21019;-67
2021/04/25 10:07:05;;;;;;;4.62;2.85;;;;;;;11.74;41.01;100454.13;1760863;81;21344;-63
2021/04/25 10:09:34;;;;;;;5.50;3.25;;;;;;;11.71;40.57;100455.91;1762666;80;21238;-63
2021/04/25 10:12:03;;;;;;;5.28;3.05;;;;;;;11.59;40.59;100446.52;1789273;78;21047;-65
2021/04/25 10:14:32;;;;;;;6.60;3.02;;;;;;;11.56;40.82;100444.19;1760556;81;21312;-64
2021/04/25 10:17:02;;;;;;;6.72;3.72;;;;;;;11.54;40.38;100442.17;1760857;81;21054;-64
2021/04/25 10:19:30;;;;;;;4.55;2.87;;;;;;;11.48;40.07;100455.33;1762463;80;21391;-62
2021/04/25 10:21:57;;;;;;;5.30;2.90;;;;;;;11.43;40.30;100456.45;1773913;78;21140;-64
2021/04/25 10:24:25;;;;;;;6.50;2.95;;;;;;;11.47;40.35;100448.67;1773988;79;21041;-62
2021/04/25 10:27:09;;;;;;;5.17;2.67;;;;;;;11.48;40.50;100442.98;1773753;79;21335;-64
2021/04/25 10:30:00;;;;;;;5.92;3.05;;;;;;;11.52;40.34;100444.79;1748453;80;21788;-65
2021/04/25 10:32:28;;;;;;;7.15;2.98;;;;;;;11.56;39.85;100450.20;1760712;80;21752;-63
2021/04/25 10:35:17;;;;;;;4.75;2.62;;;;;;;11.61;38.85;100445.79;1797078;78;21829;-63
2021/04/25 10:37:45;;;;;;;6.45;2.70;;;;;;;11.57;39.23;100444.50;1755142;81;21290;-62
2021/04/25 10:40:29;;;;;;;5.35;3.12;;;;;;;11.62;39.38;100442.52;1765618;81;21082;-63
2021/04/25 10:43:09;;;;;;;5.65;2.75;;;;;;;11.70;39.23;100451.46;1753177;81;21071;-63
2021/04/25 10:45:58;;;;;;;6.10;2.98;;;;;;;11.73;38.85;100445.56;1749205;82;21333;-64
2021/04/25 10:48:31;;;;;;;5.85;2.72;;;;;;;11.65;39.01;100448.98;1663895;85;21204;-65
2021/04/25 10:51:14;;;;;;;5.62;2.75;;;;;;;11.71;39.07;100449.56;1736563;81;21799;-64
2021/04/25 10:53:46;;;;;;;5.35;3.10;;;;;;;11.80;39.00;100437.39;1761167;81;21197;-65
2021/04/25 10:56:21;;;;;;;5.35;3.12;;;;;;;11.77;39.31;100443.26;1705392;82;21098;-63
2021/04/25 10:58:51;;;;;;;5.15;3.22;;;;;;;11.73;39.24;100446.94;1727842;81;21074;-63
2021/04/25 11:01:44;;;;;;;5.58;2.92;;;;;;;11.71;39.42;100438.59;1711956;83;21083;-65
2021/04/25 11:04:12;;;;;;;5.28;2.80;;;;;;;11.73;39.38;100444.72;1715609;83;21193;-67
2021/04/25 11:06:41;;;;;;;5.62;2.85;;;;;;;11.73;39.23;100451.05;1763252;81;21098;-63
2021/04/25 11:09:32;;;;;;;6.30;2.70;;;;;;;11.65;39.40;100448.45;1763355;81;21710;-65
2021/04/25 11:11:59;;;;;;;7.20;2.95;;;;;;;11.61;39.58;100449.91;1741928;82;21366;-65
2021/04/25 11:14:38;;;;;;;5.25;2.85;;;;;;;11.55;39.71;100445.76;1744518;81;21193;-66
2021/04/25 11:17:28;;;;;;;5.55;3.40;;;;;;;11.49;39.87;100453.43;1744516;81;21426;-67
2021/04/25 11:19:56;;;;;;;7.08;3.00;;;;;;;11.35;40.28;100452.50;1744384;82;21062;-68
2021/04/25 11:22:44;;;;;;;5.37;2.90;;;;;;;11.21;41.20;100450.73;1744383;81;21035;-66
2021/04/25 11:25:31;;;;;;;7.75;3.17;;;;;;;11.13;41.97;100453.63;1744439;82;21015;-66
2021/04/25 11:27:58;;;;;;;7.60;4.05;;;;;;;11.07;42.39;100447.89;1744623;80;21083;-66
2021/04/25 11:30:38;;;;;;;9.53;4.00;;;;;;;11.07;42.80;100446.52;1744444;82;22045;-63
2021/04/25 11:33:32;;;;;;;12.60;3.70;;;;;;;11.08;42.98;100442.73;1744902;81;21249;-63
2021/04/25 11:36:36;;;;;;;7.10;3.15;;;;;;;11.08;43.45;100449.58;1749391;80;21246;-64
2021/04/25 11:39:05;;;;;;;6.45;2.98;;;;;;;11.12;43.92;100455.52;1687840;83;21654;-61
2021/04/25 11:41:34;;;;;;;7.85;3.00;;;;;;;11.16;44.17;100460.08;1757678;80;21432;-61